sensor_id;sensor_type;location;lat;lon;timestamp;P1;durP1;ratioP1;P2;durP2;ratioP2
64367;SDS011;50692;53.314;-6.300;2023-02-28T00:01:52;4.27;;;1.90;;
64367;SDS011;50692;53.314;-6.300;2023-02-28T00:04:38;3.77;;;1.70;;
64367;SDS011;50692;53.314;-6.300;2023-02-28T00:07:24;1.83;;;1.30;;
64367;SDS011;50692;53.314;-6.300;2023-02-28T00:10:11;2.93;;;1.43;;
64367;SDS011;50692;53.314;-6.300;2023-02-28T00:13:00;2.40;;;1.20;;
64367;SDS011;50692;53.314;-6.300;2023-02-28T00:15:47;3.30;;;1.13;;
64367;SDS011;50692;53.314;-6.300;2023-02-28T00:18:43;2.63;;;1.13;;
64367;SDS011;50692;53.314;-6.300;2023-02-28T00:21:29;2.20;;;1.10;;
64367;SDS011;50692;53.314;-6.300;2023-02-28T00:24:15;2.37;;;1.30;;
64367;SDS011;50692;53.314;-6.300;2023-02-28T00:27:00;4.10;;;1.30;;
64367;SDS011;50692;53.314;-6.300;2023-02-28T00:29:47;2.13;;;0.97;;
64367;SDS011;50692;53.314;-6.300;2023-02-28T00:32:33;2.47;;;1.00;;
64367;SDS011;50692;53.314;-6.300;2023-02-28T00:35:20;3.13;;;1.30;;
64367;SDS011;50692;53.314;-6.300;2023-02-28T00:38:06;1.30;;;1.00;;
64367;SDS011;50692;53.314;-6.300;2023-02-28T00:40:52;4.60;;;1.47;;
64367;SDS011;50692;53.314;-6.300;2023-02-28T00:43:38;4.00;;;1.33;;
64367;SDS011;50692;53.314;-6.300;2023-02-28T00:46:25;5.17;;;1.40;;
64367;SDS011;50692;53.314;-6.300;2023-02-28T00:49:10;3.97;;;1.30;;
64367;SDS011;50692;53.314;-6.300;2023-02-28T00:51:56;3.10;;;1.20;;
64367;SDS011;50692;53.314;-6.300;2023-02-28T00:54:42;6.23;;;1.30;;
64367;SDS011;50692;53.314;-6.300;2023-02-28T00:57:28;3.03;;;1.40;;
64367;SDS011;50692;53.314;-6.300;2023-02-28T01:00:14;3.70;;;1.50;;
64367;SDS011;50692;53.314;-6.300;2023-02-28T01:03:00;2.63;;;1.43;;
64367;SDS011;50692;53.314;-6.300;2023-02-28T01:05:46;4.30;;;1.70;;
64367;SDS011;50692;53.314;-6.300;2023-02-28T01:08:33;3.57;;;1.53;;
64367;SDS011;50692;53.314;-6.300;2023-02-28T01:11:18;3.57;;;1.50;;
64367;SDS011;50692;53.314;-6.300;2023-02-28T01:14:04;3.80;;;1.30;;
64367;SDS011;50692;53.314;-6.300;2023-02-28T01:16:50;4.60;;;1.63;;
64367;SDS011;50692;53.314;-6.300;2023-02-28T01:19:37;3.30;;;1.40;;
64367;SDS011;50692;53.314;-6.300;2023-02-28T01:22:22;2.40;;;1.20;;
64367;SDS011;50692;53.314;-6.300;2023-02-28T01:25:08;2.60;;;1.10;;
64367;SDS011;50692;53.314;-6.300;2023-02-28T01:27:54;3.20;;;1.33;;
64367;SDS011;50692;53.314;-6.300;2023-02-28T01:30:40;2.17;;;1.17;;
64367;SDS011;50692;53.314;-6.300;2023-02-28T01:33:26;3.20;;;1.23;;
64367;SDS011;50692;53.314;-6.300;2023-02-28T01:36:13;2.13;;;1.00;;
64367;SDS011;50692;53.314;-6.300;2023-02-28T01:39:03;3.73;;;1.00;;
64367;SDS011;50692;53.314;-6.300;2023-02-28T01:41:49;1.37;;;0.80;;
64367;SDS011;50692;53.314;-6.300;2023-02-28T01:47:44;1.60;;;0.90;;
64367;SDS011;50692;53.314;-6.300;2023-02-28T01:50:34;2.38;;;1.27;;
64367;SDS011;50692;53.314;-6.300;2023-02-28T01:53:26;2.60;;;0.90;;
64367;SDS011;50692;53.314;-6.300;2023-02-28T01:56:20;5.50;;;1.17;;
64367;SDS011;50692;53.314;-6.300;2023-02-28T01:59:09;1.45;;;0.90;;
64367;SDS011;50692;53.314;-6.300;2023-02-28T02:01:59;1.17;;;0.77;;
64367;SDS011;50692;53.314;-6.300;2023-02-28T02:07:57;1.13;;;0.70;;
64367;SDS011;50692;53.314;-6.300;2023-02-28T02:10:56;1.13;;;1.00;;
64367;SDS011;50692;53.314;-6.300;2023-02-28T02:13:49;1.10;;;1.00;;
64367;SDS011;50692;53.314;-6.300;2023-02-28T02:26:33;1.83;;;1.00;;
64367;SDS011;50692;53.314;-6.300;2023-02-28T02:35:54;0.97;;;0.70;;
64367;SDS011;50692;53.314;-6.300;2023-02-28T02:41:41;1.77;;;0.90;;
64367;SDS011;50692;53.314;-6.300;2023-02-28T02:44:39;1.70;;;0.90;;
64367;SDS011;50692;53.314;-6.300;2023-02-28T02:47:30;2.30;;;1.00;;
64367;SDS011;50692;53.314;-6.300;2023-02-28T02:50:38;2.63;;;1.10;;
64367;SDS011;50692;53.314;-6.300;2023-02-28T02:53:29;3.60;;;1.85;;
64367;SDS011;50692;53.314;-6.300;2023-02-28T02:56:20;1.70;;;1.00;;
64367;SDS011;50692;53.314;-6.300;2023-02-28T02:59:12;2.30;;;1.10;;
64367;SDS011;50692;53.314;-6.300;2023-02-28T03:02:06;1.73;;;0.80;;
64367;SDS011;50692;53.314;-6.300;2023-02-28T03:04:57;1.33;;;0.87;;
64367;SDS011;50692;53.314;-6.300;2023-02-28T03:07:46;3.30;;;1.00;;
64367;SDS011;50692;53.314;-6.300;2023-02-28T03:10:33;1.43;;;0.90;;
64367;SDS011;50692;53.314;-6.300;2023-02-28T03:16:36;2.27;;;0.93;;
64367;SDS011;50692;53.314;-6.300;2023-02-28T03:28:26;2.70;;;0.80;;
64367;SDS011;50692;53.314;-6.300;2023-02-28T03:31:22;1.37;;;0.80;;
64367;SDS011;50692;53.314;-6.300;2023-02-28T03:34:14;2.20;;;0.90;;
64367;SDS011;50692;53.314;-6.300;2023-02-28T03:37:05;2.33;;;1.10;;
64367;SDS011;50692;53.314;-6.300;2023-02-28T03:39:59;2.37;;;0.93;;
64367;SDS011;50692;53.314;-6.300;2023-02-28T03:42:53;1.37;;;1.00;;
64367;SDS011;50692;53.314;-6.300;2023-02-28T03:45:44;3.87;;;0.93;;
64367;SDS011;50692;53.314;-6.300;2023-02-28T03:48:41;1.55;;;0.95;;
64367;SDS011;50692;53.314;-6.300;2023-02-28T03:51:34;2.67;;;1.33;;
64367;SDS011;50692;53.314;-6.300;2023-02-28T03:54:25;1.92;;;0.80;;
64367;SDS011;50692;53.314;-6.300;2023-02-28T03:57:22;3.33;;;1.03;;
64367;SDS011;50692;53.314;-6.300;2023-02-28T04:05:50;1.90;;;0.90;;
64367;SDS011;50692;53.314;-6.300;2023-02-28T04:08:38;3.67;;;1.10;;
64367;SDS011;50692;53.314;-6.300;2023-02-28T04:11:45;2.00;;;1.10;;
64367;SDS011;50692;53.314;-6.300;2023-02-28T04:14:32;2.17;;;0.97;;
64367;SDS011;50692;53.314;-6.300;2023-02-28T04:17:18;1.60;;;0.90;;
64367;SDS011;50692;53.314;-6.300;2023-02-28T04:20:04;3.40;;;1.03;;
64367;SDS011;50692;53.314;-6.300;2023-02-28T04:22:54;3.43;;;0.90;;
64367;SDS011;50692;53.314;-6.300;2023-02-28T04:25:40;1.47;;;0.80;;
64367;SDS011;50692;53.314;-6.300;2023-02-28T04:28:26;3.83;;;1.10;;
64367;SDS011;50692;53.314;-6.300;2023-02-28T04:31:12;1.90;;;1.00;;
64367;SDS011;50692;53.314;-6.300;2023-02-28T04:33:58;2.87;;;1.07;;
64367;SDS011;50692;53.314;-6.300;2023-02-28T04:36:44;3.80;;;1.00;;
64367;SDS011;50692;53.314;-6.300;2023-02-28T04:39:34;1.80;;;1.13;;
64367;SDS011;50692;53.314;-6.300;2023-02-28T04:42:21;2.87;;;1.10;;
64367;SDS011;50692;53.314;-6.300;2023-02-28T04:45:07;1.93;;;0.87;;
64367;SDS011;50692;53.314;-6.300;2023-02-28T04:47:55;1.63;;;0.93;;
64367;SDS011;50692;53.314;-6.300;2023-02-28T04:50:41;3.63;;;1.20;;
64367;SDS011;50692;53.314;-6.300;2023-02-28T04:53:27;2.87;;;1.00;;
64367;SDS011;50692;53.314;-6.300;2023-02-28T04:56:15;3.90;;;0.90;;
64367;SDS011;50692;53.314;-6.300;2023-02-28T04:59:02;5.40;;;1.50;;
64367;SDS011;50692;53.314;-6.300;2023-02-28T05:01:48;2.40;;;1.10;;
64367;SDS011;50692;53.314;-6.300;2023-02-28T05:04:34;4.40;;;1.37;;
64367;SDS011;50692;53.314;-6.300;2023-02-28T05:07:21;0.87;;;0.83;;
64367;SDS011;50692;53.314;-6.300;2023-02-28T05:10:06;3.70;;;0.67;;
64367;SDS011;50692;53.314;-6.300;2023-02-28T05:12:53;2.97;;;0.87;;
64367;SDS011;50692;53.314;-6.300;2023-02-28T05:15:38;1.60;;;0.60;;
64367;SDS011;50692;53.314;-6.300;2023-02-28T05:18:24;1.73;;;0.73;;
64367;SDS011;50692;53.314;-6.300;2023-02-28T05:24:11;1.37;;;0.90;;
64367;SDS011;50692;53.314;-6.300;2023-02-28T05:26:57;1.80;;;0.67;;
64367;SDS011;50692;53.314;-6.300;2023-02-28T05:29:43;1.00;;;0.70;;
64367;SDS011;50692;53.314;-6.300;2023-02-28T05:32:30;1.77;;;0.80;;
64367;SDS011;50692;53.314;-6.300;2023-02-28T05:35:16;1.53;;;0.70;;
64367;SDS011;50692;53.314;-6.300;2023-02-28T05:38:02;3.43;;;1.00;;
64367;SDS011;50692;53.314;-6.300;2023-02-28T05:40:48;2.27;;;1.23;;
64367;SDS011;50692;53.314;-6.300;2023-02-28T05:43:34;2.03;;;1.00;;
64367;SDS011;50692;53.314;-6.300;2023-02-28T05:46:20;0.90;;;0.90;;
64367;SDS011;50692;53.314;-6.300;2023-02-28T05:49:06;2.80;;;1.20;;
64367;SDS011;50692;53.314;-6.300;2023-02-28T05:51:52;2.00;;;1.03;;
64367;SDS011;50692;53.314;-6.300;2023-02-28T05:54:38;3.47;;;0.93;;
64367;SDS011;50692;53.314;-6.300;2023-02-28T05:57:24;1.83;;;1.07;;
64367;SDS011;50692;53.314;-6.300;2023-02-28T06:00:10;1.50;;;1.00;;
64367;SDS011;50692;53.314;-6.300;2023-02-28T06:02:57;3.07;;;1.00;;
64367;SDS011;50692;53.314;-6.300;2023-02-28T06:05:46;1.58;;;1.00;;
64367;SDS011;50692;53.314;-6.300;2023-02-28T06:08:32;1.03;;;0.90;;
64367;SDS011;50692;53.314;-6.300;2023-02-28T06:11:18;2.10;;;1.03;;
64367;SDS011;50692;53.314;-6.300;2023-02-28T06:14:05;2.43;;;1.20;;
64367;SDS011;50692;53.314;-6.300;2023-02-28T06:16:51;3.13;;;1.73;;
64367;SDS011;50692;53.314;-6.300;2023-02-28T06:19:38;2.60;;;1.27;;
64367;SDS011;50692;53.314;-6.300;2023-02-28T06:22:26;5.03;;;1.90;;
64367;SDS011;50692;53.314;-6.300;2023-02-28T06:25:12;3.20;;;1.50;;
64367;SDS011;50692;53.314;-6.300;2023-02-28T06:27:58;2.10;;;1.53;;
64367;SDS011;50692;53.314;-6.300;2023-02-28T06:30:44;2.90;;;1.30;;
64367;SDS011;50692;53.314;-6.300;2023-02-28T06:33:30;5.03;;;1.63;;
64367;SDS011;50692;53.314;-6.300;2023-02-28T06:36:16;1.70;;;1.30;;
64367;SDS011;50692;53.314;-6.300;2023-02-28T06:39:02;2.57;;;1.13;;
64367;SDS011;50692;53.314;-6.300;2023-02-28T06:41:48;2.63;;;1.20;;
64367;SDS011;50692;53.314;-6.300;2023-02-28T06:44:34;1.87;;;1.30;;
64367;SDS011;50692;53.314;-6.300;2023-02-28T06:47:23;2.50;;;1.38;;
64367;SDS011;50692;53.314;-6.300;2023-02-28T06:50:10;2.10;;;1.43;;
64367;SDS011;50692;53.314;-6.300;2023-02-28T06:52:57;1.97;;;1.50;;
64367;SDS011;50692;53.314;-6.300;2023-02-28T06:55:43;2.20;;;1.17;;
64367;SDS011;50692;53.314;-6.300;2023-02-28T06:58:28;2.40;;;1.50;;
64367;SDS011;50692;53.314;-6.300;2023-02-28T07:01:14;2.27;;;1.60;;
64367;SDS011;50692;53.314;-6.300;2023-02-28T07:04:00;2.20;;;1.77;;
64367;SDS011;50692;53.314;-6.300;2023-02-28T07:06:46;3.33;;;1.80;;
64367;SDS011;50692;53.314;-6.300;2023-02-28T07:09:32;4.17;;;1.90;;
64367;SDS011;50692;53.314;-6.300;2023-02-28T07:12:18;3.03;;;1.90;;
64367;SDS011;50692;53.314;-6.300;2023-02-28T07:15:04;3.93;;;2.23;;
64367;SDS011;50692;53.314;-6.300;2023-02-28T07:17:50;3.87;;;2.07;;
64367;SDS011;50692;53.314;-6.300;2023-02-28T07:20:36;3.20;;;1.90;;
64367;SDS011;50692;53.314;-6.300;2023-02-28T07:23:22;3.23;;;1.80;;
64367;SDS011;50692;53.314;-6.300;2023-02-28T07:26:14;4.10;;;2.10;;
64367;SDS011;50692;53.314;-6.300;2023-02-28T07:29:02;4.23;;;2.00;;
64367;SDS011;50692;53.314;-6.300;2023-02-28T07:31:48;3.20;;;2.00;;
64367;SDS011;50692;53.314;-6.300;2023-02-28T07:34:35;4.27;;;2.47;;
64367;SDS011;50692;53.314;-6.300;2023-02-28T07:37:21;3.07;;;1.80;;
64367;SDS011;50692;53.314;-6.300;2023-02-28T07:40:09;3.63;;;2.07;;
64367;SDS011;50692;53.314;-6.300;2023-02-28T07:42:59;3.97;;;2.00;;
64367;SDS011;50692;53.314;-6.300;2023-02-28T07:45:45;2.80;;;2.10;;
64367;SDS011;50692;53.314;-6.300;2023-02-28T07:48:32;3.43;;;2.10;;
64367;SDS011;50692;53.314;-6.300;2023-02-28T07:51:18;4.10;;;1.80;;
64367;SDS011;50692;53.314;-6.300;2023-02-28T07:54:04;5.47;;;1.77;;
64367;SDS011;50692;53.314;-6.300;2023-02-28T07:56:50;1.40;;;0.90;;
64367;SDS011;50692;53.314;-6.300;2023-02-28T07:59:36;4.07;;;1.17;;
64367;SDS011;50692;53.314;-6.300;2023-02-28T08:02:22;3.47;;;1.30;;
64367;SDS011;50692;53.314;-6.300;2023-02-28T08:05:08;2.93;;;1.13;;
64367;SDS011;50692;53.314;-6.300;2023-02-28T08:07:54;2.60;;;1.00;;
64367;SDS011;50692;53.314;-6.300;2023-02-28T08:10:39;1.77;;;0.87;;
64367;SDS011;50692;53.314;-6.300;2023-02-28T08:13:26;4.10;;;1.00;;
64367;SDS011;50692;53.314;-6.300;2023-02-28T08:16:13;2.07;;;0.93;;
64367;SDS011;50692;53.314;-6.300;2023-02-28T08:19:07;1.50;;;0.70;;
64367;SDS011;50692;53.314;-6.300;2023-02-28T08:21:54;1.57;;;0.77;;
64367;SDS011;50692;53.314;-6.300;2023-02-28T08:24:41;4.53;;;0.90;;
64367;SDS011;50692;53.314;-6.300;2023-02-28T08:27:28;2.27;;;1.17;;
64367;SDS011;50692;53.314;-6.300;2023-02-28T08:30:14;2.77;;;1.40;;
64367;SDS011;50692;53.314;-6.300;2023-02-28T08:33:00;2.73;;;1.23;;
64367;SDS011;50692;53.314;-6.300;2023-02-28T08:35:47;1.73;;;0.93;;
64367;SDS011;50692;53.314;-6.300;2023-02-28T08:38:32;2.00;;;0.80;;
64367;SDS011;50692;53.314;-6.300;2023-02-28T08:41:18;2.20;;;0.80;;
64367;SDS011;50692;53.314;-6.300;2023-02-28T08:44:04;2.87;;;0.87;;
64367;SDS011;50692;53.314;-6.300;2023-02-28T08:46:50;0.93;;;0.80;;
64367;SDS011;50692;53.314;-6.300;2023-02-28T08:49:36;1.20;;;0.60;;
64367;SDS011;50692;53.314;-6.300;2023-02-28T08:52:22;2.53;;;1.00;;
64367;SDS011;50692;53.314;-6.300;2023-02-28T08:55:08;1.20;;;0.70;;
64367;SDS011;50692;53.314;-6.300;2023-02-28T08:57:55;1.60;;;0.90;;
64367;SDS011;50692;53.314;-6.300;2023-02-28T09:00:40;1.50;;;1.00;;
64367;SDS011;50692;53.314;-6.300;2023-02-28T09:03:26;1.60;;;1.00;;
64367;SDS011;50692;53.314;-6.300;2023-02-28T09:06:12;1.73;;;0.70;;
64367;SDS011;50692;53.314;-6.300;2023-02-28T09:08:59;1.00;;;0.73;;
64367;SDS011;50692;53.314;-6.300;2023-02-28T09:11:46;2.47;;;0.73;;
64367;SDS011;50692;53.314;-6.300;2023-02-28T09:14:32;2.03;;;0.80;;
64367;SDS011;50692;53.314;-6.300;2023-02-28T09:17:18;0.60;;;0.57;;
64367;SDS011;50692;53.314;-6.300;2023-02-28T09:20:04;1.37;;;0.70;;
64367;SDS011;50692;53.314;-6.300;2023-02-28T09:22:51;2.73;;;0.97;;
64367;SDS011;50692;53.314;-6.300;2023-02-28T09:25:37;2.17;;;0.80;;
64367;SDS011;50692;53.314;-6.300;2023-02-28T09:28:31;2.40;;;0.63;;
64367;SDS011;50692;53.314;-6.300;2023-02-28T09:31:19;2.90;;;0.63;;
64367;SDS011;50692;53.314;-6.300;2023-02-28T09:34:07;0.98;;;0.40;;
64367;SDS011;50692;53.314;-6.300;2023-02-28T09:36:52;0.93;;;0.50;;
64367;SDS011;50692;53.314;-6.300;2023-02-28T09:39:40;2.37;;;0.70;;
64367;SDS011;50692;53.314;-6.300;2023-02-28T09:42:29;1.77;;;0.77;;
64367;SDS011;50692;53.314;-6.300;2023-02-28T09:45:37;2.73;;;1.13;;
64367;SDS011;50692;53.314;-6.300;2023-02-28T09:48:33;3.03;;;0.60;;
64367;SDS011;50692;53.314;-6.300;2023-02-28T09:54:44;1.37;;;1.00;;
64367;SDS011;50692;53.314;-6.300;2023-02-28T09:57:34;3.43;;;1.30;;
64367;SDS011;50692;53.314;-6.300;2023-02-28T10:00:33;3.03;;;0.80;;
64367;SDS011;50692;53.314;-6.300;2023-02-28T10:04:08;1.70;;;0.60;;
64367;SDS011;50692;53.314;-6.300;2023-02-28T10:06:49;1.70;;;0.60;;
64367;SDS011;50692;53.314;-6.300;2023-02-28T10:09:36;4.70;;;1.40;;
64367;SDS011;50692;53.314;-6.300;2023-02-28T10:12:22;3.93;;;1.07;;
64367;SDS011;50692;53.314;-6.300;2023-02-28T10:15:14;0.97;;;0.47;;
64367;SDS011;50692;53.314;-6.300;2023-02-28T10:18:03;2.77;;;0.70;;
64367;SDS011;50692;53.314;-6.300;2023-02-28T10:20:51;1.23;;;0.47;;
64367;SDS011;50692;53.314;-6.300;2023-02-28T10:23:41;1.95;;;0.63;;
64367;SDS011;50692;53.314;-6.300;2023-02-28T10:26:27;1.47;;;0.50;;
64367;SDS011;50692;53.314;-6.300;2023-02-28T10:29:16;3.65;;;1.00;;
64367;SDS011;50692;53.314;-6.300;2023-02-28T10:32:02;1.27;;;0.90;;
64367;SDS011;50692;53.314;-6.300;2023-02-28T10:34:53;2.43;;;1.03;;
64367;SDS011;50692;53.314;-6.300;2023-02-28T10:37:44;1.80;;;0.50;;
64367;SDS011;50692;53.314;-6.300;2023-02-28T10:40:33;1.60;;;0.60;;
64367;SDS011;50692;53.314;-6.300;2023-02-28T10:43:23;1.07;;;0.43;;
64367;SDS011;50692;53.314;-6.300;2023-02-28T10:49:05;1.53;;;0.40;;
64367;SDS011;50692;53.314;-6.300;2023-02-28T10:52:37;0.97;;;0.33;;
64367;SDS011;50692;53.314;-6.300;2023-02-28T10:55:27;1.83;;;0.70;;
64367;SDS011;50692;53.314;-6.300;2023-02-28T11:01:42;0.50;;;0.40;;
64367;SDS011;50692;53.314;-6.300;2023-02-28T11:04:34;1.20;;;0.43;;
64367;SDS011;50692;53.314;-6.300;2023-02-28T11:07:23;3.72;;;0.63;;
64367;SDS011;50692;53.314;-6.300;2023-02-28T11:10:16;1.40;;;0.50;;
64367;SDS011;50692;53.314;-6.300;2023-02-28T11:13:05;1.97;;;0.47;;
64367;SDS011;50692;53.314;-6.300;2023-02-28T11:15:57;1.60;;;0.40;;
64367;SDS011;50692;53.314;-6.300;2023-02-28T11:18:49;1.00;;;0.47;;
64367;SDS011;50692;53.314;-6.300;2023-02-28T11:21:39;1.50;;;0.50;;
64367;SDS011;50692;53.314;-6.300;2023-02-28T11:24:40;1.03;;;0.50;;
64367;SDS011;50692;53.314;-6.300;2023-02-28T11:27:40;1.57;;;0.30;;
64367;SDS011;50692;53.314;-6.300;2023-02-28T11:30:34;0.67;;;0.47;;
64367;SDS011;50692;53.314;-6.300;2023-02-28T11:33:30;1.33;;;0.60;;
64367;SDS011;50692;53.314;-6.300;2023-02-28T11:36:27;1.27;;;0.63;;
64367;SDS011;50692;53.314;-6.300;2023-02-28T11:39:15;2.00;;;0.80;;
64367;SDS011;50692;53.314;-6.300;2023-02-28T11:54:33;3.50;;;1.20;;
64367;SDS011;50692;53.314;-6.300;2023-02-28T11:57:52;2.33;;;0.80;;
64367;SDS011;50692;53.314;-6.300;2023-02-28T12:22:16;2.77;;;1.00;;
64367;SDS011;50692;53.314;-6.300;2023-02-28T12:28:09;1.70;;;0.60;;
64367;SDS011;50692;53.314;-6.300;2023-02-28T12:31:06;1.23;;;0.65;;
64367;SDS011;50692;53.314;-6.300;2023-02-28T12:34:06;2.20;;;0.80;;
64367;SDS011;50692;53.314;-6.300;2023-02-28T12:36:58;1.27;;;0.73;;
64367;SDS011;50692;53.314;-6.300;2023-02-28T12:39:51;0.90;;;0.57;;
64367;SDS011;50692;53.314;-6.300;2023-02-28T12:42:46;2.47;;;1.70;;
64367;SDS011;50692;53.314;-6.300;2023-02-28T12:48:31;2.33;;;0.90;;
64367;SDS011;50692;53.314;-6.300;2023-02-28T12:51:24;3.50;;;1.10;;
64367;SDS011;50692;53.314;-6.300;2023-02-28T12:57:35;1.37;;;0.90;;
64367;SDS011;50692;53.314;-6.300;2023-02-28T13:00:29;0.80;;;0.60;;
64367;SDS011;50692;53.314;-6.300;2023-02-28T13:09:59;1.83;;;0.80;;
64367;SDS011;50692;53.314;-6.300;2023-02-28T13:12:57;2.87;;;0.70;;
64367;SDS011;50692;53.314;-6.300;2023-02-28T13:15:56;1.53;;;0.90;;
64367;SDS011;50692;53.314;-6.300;2023-02-28T13:18:47;2.73;;;1.00;;
64367;SDS011;50692;53.314;-6.300;2023-02-28T13:21:35;2.87;;;0.87;;
64367;SDS011;50692;53.314;-6.300;2023-02-28T13:36:44;2.83;;;1.50;;
64367;SDS011;50692;53.314;-6.300;2023-02-28T13:48:00;3.10;;;2.80;;
64367;SDS011;50692;53.314;-6.300;2023-02-28T13:51:00;3.80;;;1.23;;
64367;SDS011;50692;53.314;-6.300;2023-02-28T14:04:14;2.83;;;1.20;;
64367;SDS011;50692;53.314;-6.300;2023-02-28T14:07:09;3.67;;;1.20;;
64367;SDS011;50692;53.314;-6.300;2023-02-28T14:10:04;2.30;;;1.17;;
64367;SDS011;50692;53.314;-6.300;2023-02-28T14:15:47;3.10;;;1.20;;
64367;SDS011;50692;53.314;-6.300;2023-02-28T14:18:48;2.50;;;1.20;;
64367;SDS011;50692;53.314;-6.300;2023-02-28T14:21:38;4.60;;;1.40;;
64367;SDS011;50692;53.314;-6.300;2023-02-28T14:24:42;4.63;;;1.33;;
64367;SDS011;50692;53.314;-6.300;2023-02-28T14:33:41;2.55;;;0.80;;
64367;SDS011;50692;53.314;-6.300;2023-02-28T14:36:32;2.80;;;1.00;;
64367;SDS011;50692;53.314;-6.300;2023-02-28T14:39:22;1.83;;;1.20;;
64367;SDS011;50692;53.314;-6.300;2023-02-28T14:45:18;1.43;;;0.90;;
64367;SDS011;50692;53.314;-6.300;2023-02-28T14:48:08;4.37;;;1.10;;
64367;SDS011;50692;53.314;-6.300;2023-02-28T14:53:45;1.30;;;1.00;;
64367;SDS011;50692;53.314;-6.300;2023-02-28T14:56:38;2.13;;;1.00;;
64367;SDS011;50692;53.314;-6.300;2023-02-28T14:59:29;2.50;;;1.02;;
64367;SDS011;50692;53.314;-6.300;2023-02-28T15:02:21;3.30;;;1.27;;
64367;SDS011;50692;53.314;-6.300;2023-02-28T15:10:54;1.70;;;1.17;;
64367;SDS011;50692;53.314;-6.300;2023-02-28T15:13:49;2.80;;;1.20;;
64367;SDS011;50692;53.314;-6.300;2023-02-28T15:16:38;2.67;;;1.43;;
64367;SDS011;50692;53.314;-6.300;2023-02-28T15:19:30;3.28;;;1.65;;
64367;SDS011;50692;53.314;-6.300;2023-02-28T15:22:26;1.50;;;1.17;;
64367;SDS011;50692;53.314;-6.300;2023-02-28T15:25:18;3.30;;;1.40;;
64367;SDS011;50692;53.314;-6.300;2023-02-28T15:28:09;3.37;;;1.37;;
64367;SDS011;50692;53.314;-6.300;2023-02-28T15:31:00;2.57;;;1.60;;
64367;SDS011;50692;53.314;-6.300;2023-02-28T15:33:57;6.80;;;2.40;;
64367;SDS011;50692;53.314;-6.300;2023-02-28T15:36:48;3.00;;;1.83;;
64367;SDS011;50692;53.314;-6.300;2023-02-28T15:39:40;2.10;;;1.10;;
64367;SDS011;50692;53.314;-6.300;2023-02-28T15:42:28;1.37;;;1.00;;
64367;SDS011;50692;53.314;-6.300;2023-02-28T15:45:34;16.43;;;7.50;;
64367;SDS011;50692;53.314;-6.300;2023-02-28T15:48:35;12.37;;;2.07;;
64367;SDS011;50692;53.314;-6.300;2023-02-28T15:51:42;3.77;;;1.50;;
64367;SDS011;50692;53.314;-6.300;2023-02-28T15:54:30;2.60;;;1.57;;
64367;SDS011;50692;53.314;-6.300;2023-02-28T15:57:24;2.10;;;1.60;;
64367;SDS011;50692;53.314;-6.300;2023-02-28T16:00:12;3.03;;;1.93;;
64367;SDS011;50692;53.314;-6.300;2023-02-28T16:03:01;4.60;;;1.98;;
64367;SDS011;50692;53.314;-6.300;2023-02-28T16:05:46;14.70;;;10.40;;
64367;SDS011;50692;53.314;-6.300;2023-02-28T16:09:02;2.77;;;1.47;;
64367;SDS011;50692;53.314;-6.300;2023-02-28T16:11:50;2.70;;;1.40;;
64367;SDS011;50692;53.314;-6.300;2023-02-28T16:14:38;4.07;;;1.58;;
64367;SDS011;50692;53.314;-6.300;2023-02-28T16:17:26;4.90;;;1.77;;
64367;SDS011;50692;53.314;-6.300;2023-02-28T16:20:19;2.60;;;1.65;;
64367;SDS011;50692;53.314;-6.300;2023-02-28T16:23:06;2.63;;;1.50;;
64367;SDS011;50692;53.314;-6.300;2023-02-28T16:25:53;3.77;;;1.47;;
64367;SDS011;50692;53.314;-6.300;2023-02-28T16:28:39;3.63;;;1.90;;
64367;SDS011;50692;53.314;-6.300;2023-02-28T16:31:25;2.77;;;1.40;;
64367;SDS011;50692;53.314;-6.300;2023-02-28T16:34:11;2.20;;;1.40;;
64367;SDS011;50692;53.314;-6.300;2023-02-28T16:36:57;4.10;;;2.10;;
64367;SDS011;50692;53.314;-6.300;2023-02-28T16:39:44;4.70;;;1.90;;
64367;SDS011;50692;53.314;-6.300;2023-02-28T16:42:30;2.03;;;1.50;;
64367;SDS011;50692;53.314;-6.300;2023-02-28T16:45:21;4.30;;;3.47;;
64367;SDS011;50692;53.314;-6.300;2023-02-28T16:48:11;3.67;;;2.33;;
64367;SDS011;50692;53.314;-6.300;2023-02-28T16:50:59;2.88;;;2.22;;
64367;SDS011;50692;53.314;-6.300;2023-02-28T16:53:45;3.50;;;2.67;;
64367;SDS011;50692;53.314;-6.300;2023-02-28T16:56:31;6.43;;;2.50;;
64367;SDS011;50692;53.314;-6.300;2023-02-28T16:59:21;4.47;;;2.20;;
64367;SDS011;50692;53.314;-6.300;2023-02-28T17:02:13;4.27;;;1.80;;
64367;SDS011;50692;53.314;-6.300;2023-02-28T17:05:01;5.63;;;2.67;;
64367;SDS011;50692;53.314;-6.300;2023-02-28T17:07:48;4.23;;;3.43;;
64367;SDS011;50692;53.314;-6.300;2023-02-28T17:10:34;3.70;;;2.33;;
64367;SDS011;50692;53.314;-6.300;2023-02-28T17:13:20;3.10;;;2.20;;
64367;SDS011;50692;53.314;-6.300;2023-02-28T17:16:09;4.50;;;2.30;;
64367;SDS011;50692;53.314;-6.300;2023-02-28T17:19:04;4.73;;;2.33;;
64367;SDS011;50692;53.314;-6.300;2023-02-28T17:21:51;4.07;;;2.50;;
64367;SDS011;50692;53.314;-6.300;2023-02-28T17:24:37;4.30;;;2.23;;
64367;SDS011;50692;53.314;-6.300;2023-02-28T17:27:23;4.17;;;1.77;;
64367;SDS011;50692;53.314;-6.300;2023-02-28T17:30:19;2.93;;;2.00;;
64367;SDS011;50692;53.314;-6.300;2023-02-28T17:33:10;4.47;;;2.33;;
64367;SDS011;50692;53.314;-6.300;2023-02-28T17:35:55;2.70;;;1.77;;
64367;SDS011;50692;53.314;-6.300;2023-02-28T17:38:42;3.90;;;2.43;;
64367;SDS011;50692;53.314;-6.300;2023-02-28T17:41:27;3.70;;;2.50;;
64367;SDS011;50692;53.314;-6.300;2023-02-28T17:44:15;3.40;;;2.27;;
64367;SDS011;50692;53.314;-6.300;2023-02-28T17:47:01;4.33;;;2.53;;
64367;SDS011;50692;53.314;-6.300;2023-02-28T17:49:47;5.30;;;2.60;;
64367;SDS011;50692;53.314;-6.300;2023-02-28T17:52:32;4.83;;;2.30;;
64367;SDS011;50692;53.314;-6.300;2023-02-28T17:55:22;4.18;;;2.53;;
64367;SDS011;50692;53.314;-6.300;2023-02-28T17:58:09;7.50;;;4.10;;
64367;SDS011;50692;53.314;-6.300;2023-02-28T18:00:57;5.15;;;3.95;;
64367;SDS011;50692;53.314;-6.300;2023-02-28T18:03:43;5.47;;;3.30;;
64367;SDS011;50692;53.314;-6.300;2023-02-28T18:07:02;3.63;;;2.10;;
64367;SDS011;50692;53.314;-6.300;2023-02-28T18:09:45;5.37;;;3.40;;
64367;SDS011;50692;53.314;-6.300;2023-02-28T18:12:30;4.50;;;2.97;;
64367;SDS011;50692;53.314;-6.300;2023-02-28T18:15:18;3.20;;;2.70;;
64367;SDS011;50692;53.314;-6.300;2023-02-28T18:18:05;3.67;;;2.63;;
64367;SDS011;50692;53.314;-6.300;2023-02-28T18:20:52;4.30;;;3.57;;
64367;SDS011;50692;53.314;-6.300;2023-02-28T18:23:39;4.23;;;3.00;;
64367;SDS011;50692;53.314;-6.300;2023-02-28T18:26:32;6.37;;;4.10;;
64367;SDS011;50692;53.314;-6.300;2023-02-28T18:29:20;6.90;;;3.73;;
64367;SDS011;50692;53.314;-6.300;2023-02-28T18:32:09;7.03;;;5.10;;
64367;SDS011;50692;53.314;-6.300;2023-02-28T18:34:55;3.63;;;2.67;;
64367;SDS011;50692;53.314;-6.300;2023-02-28T18:37:41;6.13;;;2.93;;
64367;SDS011;50692;53.314;-6.300;2023-02-28T18:40:27;5.10;;;3.43;;
64367;SDS011;50692;53.314;-6.300;2023-02-28T18:43:13;5.03;;;4.40;;
64367;SDS011;50692;53.314;-6.300;2023-02-28T18:46:09;12.17;;;7.83;;
64367;SDS011;50692;53.314;-6.300;2023-02-28T18:48:57;4.63;;;3.37;;
64367;SDS011;50692;53.314;-6.300;2023-02-28T18:51:43;7.30;;;3.90;;
64367;SDS011;50692;53.314;-6.300;2023-02-28T18:54:30;5.10;;;3.57;;
64367;SDS011;50692;53.314;-6.300;2023-02-28T18:57:16;6.13;;;4.10;;
64367;SDS011;50692;53.314;-6.300;2023-02-28T19:00:02;8.10;;;4.80;;
64367;SDS011;50692;53.314;-6.300;2023-02-28T19:02:48;3.87;;;2.97;;
64367;SDS011;50692;53.314;-6.300;2023-02-28T19:05:35;4.77;;;3.00;;
64367;SDS011;50692;53.314;-6.300;2023-02-28T19:08:21;7.70;;;4.60;;
64367;SDS011;50692;53.314;-6.300;2023-02-28T19:11:15;4.70;;;3.17;;
64367;SDS011;50692;53.314;-6.300;2023-02-28T19:14:03;4.97;;;2.90;;
64367;SDS011;50692;53.314;-6.300;2023-02-28T19:16:49;5.60;;;3.80;;
64367;SDS011;50692;53.314;-6.300;2023-02-28T19:19:35;7.70;;;4.77;;
64367;SDS011;50692;53.314;-6.300;2023-02-28T19:22:20;6.90;;;4.40;;